sensor_id;sensor_type;location;lat;lon;timestamp;pressure;altitude;pressure_sealevel;temperature;humidity
56944;BME280;42848;42.524;12.052;2023-09-18T00:01:56;97013.22;;;22.11;88.03
56944;BME280;42848;42.524;12.052;2023-09-18T00:04:21;97009.16;;;21.94;88.07
56944;BME280;42848;42.524;12.052;2023-09-18T00:06:47;97009.19;;;21.98;86.85
56944;BME280;42848;42.524;12.052;2023-09-18T00:09:13;97004.84;;;22.00;85.88
56944;BME280;42848;42.524;12.052;2023-09-18T00:11:40;97006.13;;;22.10;84.25
56944;BME280;42848;42.524;12.052;2023-09-18T00:14:07;97003.66;;;22.01;85.46
56944;BME280;42848;42.524;12.052;2023-09-18T00:16:33;97006.03;;;21.96;87.47
56944;BME280;42848;42.524;12.052;2023-09-18T00:18:59;97000.56;;;22.06;87.39
56944;BME280;42848;42.524;12.052;2023-09-18T00:21:25;96998.94;;;21.98;87.42
56944;BME280;42848;42.524;12.052;2023-09-18T00:23:52;97001.69;;;21.95;90.49
56944;BME280;42848;42.524;12.052;2023-09-18T00:26:17;97012.31;;;21.93;91.32
56944;BME280;42848;42.524;12.052;2023-09-18T00:28:43;97007.97;;;21.88;91.88
56944;BME280;42848;42.524;12.052;2023-09-18T00:31:09;96996.06;;;21.80;93.43
56944;BME280;42848;42.524;12.052;2023-09-18T00:33:35;96989.25;;;21.60;90.44
56944;BME280;42848;42.524;12.052;2023-09-18T00:36:01;96993.34;;;21.88;90.15
56944;BME280;42848;42.524;12.052;2023-09-18T00:38:26;96990.16;;;21.78;88.75
56944;BME280;42848;42.524;12.052;2023-09-18T00:40:54;96983.00;;;21.70;93.11
56944;BME280;42848;42.524;12.052;2023-09-18T00:43:20;96980.28;;;21.77;92.32
56944;BME280;42848;42.524;12.052;2023-09-18T00:45:48;96982.16;;;21.63;92.78
56944;BME280;42848;42.524;12.052;2023-09-18T00:48:17;96976.72;;;21.80;90.00
56944;BME280;42848;42.524;12.052;2023-09-18T00:50:44;96975.88;;;21.69;84.76
56944;BME280;42848;42.524;12.052;2023-09-18T00:53:14;96962.03;;;21.62;84.91
56944;BME280;42848;42.524;12.052;2023-09-18T00:55:41;96947.44;;;21.65;85.67
56944;BME280;42848;42.524;12.052;2023-09-18T00:58:07;96950.63;;;21.67;86.65
56944;BME280;42848;42.524;12.052;2023-09-18T01:00:33;96937.50;;;21.57;88.28
56944;BME280;42848;42.524;12.052;2023-09-18T01:03:00;96930.13;;;21.82;87.47
56944;BME280;42848;42.524;12.052;2023-09-18T01:05:27;96938.81;;;21.84;87.46
56944;BME280;42848;42.524;12.052;2023-09-18T01:07:52;96927.41;;;21.93;86.48
56944;BME280;42848;42.524;12.052;2023-09-18T01:10:19;96942.81;;;21.87;86.39
56944;BME280;42848;42.524;12.052;2023-09-18T01:12:55;96939.22;;;21.83;86.38
56944;BME280;42848;42.524;12.052;2023-09-18T01:15:32;96942.03;;;21.94;87.17
56944;BME280;42848;42.524;12.052;2023-09-18T01:18:00;96944.44;;;21.95;86.91
56944;BME280;42848;42.524;12.052;2023-09-18T01:20:26;96949.91;;;21.92;86.95
56944;BME280;42848;42.524;12.052;2023-09-18T01:22:52;96947.75;;;21.53;90.51
56944;BME280;42848;42.524;12.052;2023-09-18T01:25:18;96948.94;;;21.55;90.77
56944;BME280;42848;42.524;12.052;2023-09-18T01:27:44;96953.78;;;21.73;90.86
56944;BME280;42848;42.524;12.052;2023-09-18T01:30:09;96947.78;;;21.56;91.66
56944;BME280;42848;42.524;12.052;2023-09-18T01:32:37;96948.50;;;21.46;94.06
56944;BME280;42848;42.524;12.052;2023-09-18T01:35:04;96950.63;;;21.74;93.72
56944;BME280;42848;42.524;12.052;2023-09-18T01:37:33;96944.28;;;21.67;94.85
56944;BME280;42848;42.524;12.052;2023-09-18T01:40:01;96951.50;;;21.93;94.51
56944;BME280;42848;42.524;12.052;2023-09-18T01:42:32;96948.94;;;21.52;97.20
56944;BME280;42848;42.524;12.052;2023-09-18T01:44:59;96951.22;;;21.36;100.00
56944;BME280;42848;42.524;12.052;2023-09-18T01:47:25;96946.13;;;21.41;100.00
56944;BME280;42848;42.524;12.052;2023-09-18T01:49:52;96942.03;;;21.24;100.00
56944;BME280;42848;42.524;12.052;2023-09-18T01:52:17;96943.41;;;21.52;100.00
56944;BME280;42848;42.524;12.052;2023-09-18T01:54:43;96939.88;;;21.55;100.00
56944;BME280;42848;42.524;12.052;2023-09-18T01:57:09;96936.47;;;21.83;100.00
56944;BME280;42848;42.524;12.052;2023-09-18T01:59:35;96926.94;;;21.73;100.00
56944;BME280;42848;42.524;12.052;2023-09-18T02:02:00;96927.53;;;21.38;100.00
56944;BME280;42848;42.524;12.052;2023-09-18T02:04:29;96927.75;;;21.77;100.00
56944;BME280;42848;42.524;12.052;2023-09-18T02:06:56;96930.53;;;21.77;100.00
56944;BME280;42848;42.524;12.052;2023-09-18T02:09:22;96925.16;;;21.33;100.00
56944;BME280;42848;42.524;12.052;2023-09-18T02:11:48;96926.59;;;21.20;100.00
56944;BME280;42848;42.524;12.052;2023-09-18T02:14:14;96913.72;;;21.31;100.00
56944;BME280;42848;42.524;12.052;2023-09-18T02:16:41;96903.22;;;21.58;100.00
56944;BME280;42848;42.524;12.052;2023-09-18T02:19:10;96903.69;;;21.12;100.00
56944;BME280;42848;42.524;12.052;2023-09-18T02:21:36;96903.59;;;21.01;100.00
56944;BME280;42848;42.524;12.052;2023-09-18T02:24:03;96905.69;;;21.15;100.00
56944;BME280;42848;42.524;12.052;2023-09-18T02:26:29;96897.59;;;21.44;100.00
56944;BME280;42848;42.524;12.052;2023-09-18T02:29:00;96895.88;;;21.21;100.00
56944;BME280;42848;42.524;12.052;2023-09-18T02:31:27;96887.69;;;21.36;100.00
56944;BME280;42848;42.524;12.052;2023-09-18T02:33:52;96893.50;;;21.23;100.00
56944;BME280;42848;42.524;12.052;2023-09-18T02:36:18;96884.38;;;21.12;100.00
56944;BME280;42848;42.524;12.052;2023-09-18T02:38:43;96889.66;;;21.39;100.00
56944;BME280;42848;42.524;12.052;2023-09-18T02:41:10;96901.00;;;21.23;100.00
56944;BME280;42848;42.524;12.052;2023-09-18T02:43:36;96903.47;;;21.32;100.00
56944;BME280;42848;42.524;12.052;2023-09-18T02:46:05;96905.25;;;21.10;100.00
56944;BME280;42848;42.524;12.052;2023-09-18T02:48:31;96905.44;;;21.38;100.00
56944;BME280;42848;42.524;12.052;2023-09-18T02:51:01;96913.38;;;21.47;100.00
56944;BME280;42848;42.524;12.052;2023-09-18T02:53:27;96905.09;;;21.40;100.00
56944;BME280;42848;42.524;12.052;2023-09-18T02:55:56;96902.88;;;21.12;100.00
56944;BME280;42848;42.524;12.052;2023-09-18T02:58:22;96899.56;;;20.85;100.00
56944;BME280;42848;42.524;12.052;2023-09-18T03:00:52;96896.94;;;21.06;100.00
56944;BME280;42848;42.524;12.052;2023-09-18T03:03:21;96897.50;;;21.29;100.00
56944;BME280;42848;42.524;12.052;2023-09-18T03:05:47;96909.44;;;21.41;100.00
56944;BME280;42848;42.524;12.052;2023-09-18T03:08:14;96911.81;;;21.46;100.00
56944;BME280;42848;42.524;12.052;2023-09-18T03:10:42;96916.78;;;21.22;100.00
56944;BME280;42848;42.524;12.052;2023-09-18T03:13:10;96911.75;;;21.32;100.00
56944;BME280;42848;42.524;12.052;2023-09-18T03:15:37;96906.81;;;21.07;100.00
56944;BME280;42848;42.524;12.052;2023-09-18T03:18:03;96901.88;;;20.83;100.00
56944;BME280;42848;42.524;12.052;2023-09-18T03:20:30;96900.38;;;20.89;100.00
56944;BME280;42848;42.524;12.052;2023-09-18T03:22:59;96888.28;;;21.11;100.00
56944;BME280;42848;42.524;12.052;2023-09-18T03:25:26;96898.38;;;21.41;100.00
56944;BME280;42848;42.524;12.052;2023-09-18T03:27:53;96891.94;;;21.26;100.00
56944;BME280;42848;42.524;12.052;2023-09-18T03:30:20;96899.91;;;21.31;100.00
56944;BME280;42848;42.524;12.052;2023-09-18T03:32:47;96902.34;;;21.43;100.00
56944;BME280;42848;42.524;12.052;2023-09-18T03:35:17;96903.56;;;21.53;100.00
56944;BME280;42848;42.524;12.052;2023-09-18T03:37:53;96895.28;;;21.49;100.00
56944;BME280;42848;42.524;12.052;2023-09-18T03:40:22;96896.28;;;21.23;100.00
56944;BME280;42848;42.524;12.052;2023-09-18T03:42:49;96881.81;;;21.48;100.00
56944;BME280;42848;42.524;12.052;2023-09-18T03:45:15;96889.56;;;21.24;100.00
56944;BME280;42848;42.524;12.052;2023-09-18T03:47:44;96888.88;;;21.35;100.00
56944;BME280;42848;42.524;12.052;2023-09-18T03:50:10;96883.19;;;21.13;100.00
56944;BME280;42848;42.524;12.052;2023-09-18T03:52:37;96884.75;;;21.11;100.00
56944;BME280;42848;42.524;12.052;2023-09-18T03:55:05;96885.53;;;21.11;100.00
56944;BME280;42848;42.524;12.052;2023-09-18T03:57:31;96879.81;;;21.38;100.00
56944;BME280;42848;42.524;12.052;2023-09-18T03:59:56;96885.00;;;21.50;100.00
56944;BME280;42848;42.524;12.052;2023-09-18T04:02:24;96882.22;;;21.43;100.00
56944;BME280;42848;42.524;12.052;2023-09-18T04:04:50;96883.38;;;21.42;100.00
56944;BME280;42848;42.524;12.052;2023-09-18T04:07:16;96883.44;;;21.56;100.00
56944;BME280;42848;42.524;12.052;2023-09-18T04:09:42;96882.59;;;21.41;100.00
56944;BME280;42848;42.524;12.052;2023-09-18T04:12:08;96884.19;;;21.46;100.00
56944;BME280;42848;42.524;12.052;2023-09-18T04:14:35;96881.63;;;21.19;100.00
56944;BME280;42848;42.524;12.052;2023-09-18T04:17:01;96884.00;;;21.17;100.00
56944;BME280;42848;42.524;12.052;2023-09-18T04:19:27;96876.53;;;21.21;100.00
56944;BME280;42848;42.524;12.052;2023-09-18T04:21:53;96870.47;;;21.01;100.00
56944;BME280;42848;42.524;12.052;2023-09-18T04:24:19;96880.06;;;21.18;100.00
56944;BME280;42848;42.524;12.052;2023-09-18T04:26:44;96871.50;;;21.38;100.00
56944;BME280;42848;42.524;12.052;2023-09-18T04:29:10;96859.81;;;21.62;100.00
56944;BME280;42848;42.524;12.052;2023-09-18T04:31:36;96865.31;;;21.62;100.00
56944;BME280;42848;42.524;12.052;2023-09-18T04:34:01;96866.06;;;21.55;100.00
56944;BME280;42848;42.524;12.052;2023-09-18T04:36:28;96865.34;;;21.69;100.00
56944;BME280;42848;42.524;12.052;2023-09-18T04:38:53;96862.97;;;21.64;100.00
56944;BME280;42848;42.524;12.052;2023-09-18T04:41:19;96864.13;;;21.63;100.00
56944;BME280;42848;42.524;12.052;2023-09-18T04:43:45;96866.13;;;21.59;100.00
56944;BME280;42848;42.524;12.052;2023-09-18T04:46:10;96862.53;;;21.55;100.00
56944;BME280;42848;42.524;12.052;2023-09-18T04:48:36;96846.38;;;21.64;100.00
56944;BME280;42848;42.524;12.052;2023-09-18T04:51:02;96841.25;;;21.59;100.00
56944;BME280;42848;42.524;12.052;2023-09-18T04:53:30;96845.13;;;21.44;100.00
56944;BME280;42848;42.524;12.052;2023-09-18T04:55:57;96835.63;;;21.38;100.00
56944;BME280;42848;42.524;12.052;2023-09-18T04:58:22;96845.50;;;21.46;100.00
56944;BME280;42848;42.524;12.052;2023-09-18T05:00:59;96843.19;;;21.51;100.00
56944;BME280;42848;42.524;12.052;2023-09-18T05:03:25;96845.16;;;21.51;100.00
56944;BME280;42848;42.524;12.052;2023-09-18T05:05:54;96846.69;;;21.41;100.00
56944;BME280;42848;42.524;12.052;2023-09-18T05:08:20;96852.66;;;21.50;100.00
56944;BME280;42848;42.524;12.052;2023-09-18T05:10:46;96866.00;;;21.38;100.00
56944;BME280;42848;42.524;12.052;2023-09-18T05:13:13;96880.94;;;21.29;100.00
56944;BME280;42848;42.524;12.052;2023-09-18T05:15:38;96898.13;;;21.05;100.00
56944;BME280;42848;42.524;12.052;2023-09-18T05:18:04;96895.97;;;21.36;100.00
56944;BME280;42848;42.524;12.052;2023-09-18T05:20:31;96895.13;;;21.28;100.00
56944;BME280;42848;42.524;12.052;2023-09-18T05:22:57;96877.91;;;21.49;100.00
56944;BME280;42848;42.524;12.052;2023-09-18T05:25:25;96873.97;;;21.50;100.00
56944;BME280;42848;42.524;12.052;2023-09-18T05:27:53;96885.41;;;21.55;100.00
56944;BME280;42848;42.524;12.052;2023-09-18T05:30:30;96900.84;;;21.60;100.00
56944;BME280;42848;42.524;12.052;2023-09-18T05:33:05;96909.47;;;21.55;100.00
56944;BME280;42848;42.524;12.052;2023-09-18T05:37:58;96913.47;;;21.61;100.00
56944;BME280;42848;42.524;12.052;2023-09-18T05:40:25;96914.31;;;21.72;100.00
56944;BME280;42848;42.524;12.052;2023-09-18T05:42:53;96915.06;;;21.58;100.00
56944;BME280;42848;42.524;12.052;2023-09-18T05:45:19;96916.59;;;21.56;100.00
56944;BME280;42848;42.524;12.052;2023-09-18T05:47:45;96930.53;;;21.84;100.00
56944;BME280;42848;42.524;12.052;2023-09-18T05:50:12;96926.94;;;21.73;100.00
56944;BME280;42848;42.524;12.052;2023-09-18T05:52:40;96923.88;;;21.93;100.00
56944;BME280;42848;42.524;12.052;2023-09-18T05:55:06;96916.34;;;21.90;100.00
56944;BME280;42848;42.524;12.052;2023-09-18T05:57:32;96921.53;;;21.95;100.00
56944;BME280;42848;42.524;12.052;2023-09-18T05:59:58;96914.41;;;21.97;100.00
56944;BME280;42848;42.524;12.052;2023-09-18T06:02:23;96919.94;;;22.01;100.00
56944;BME280;42848;42.524;12.052;2023-09-18T06:04:56;96924.72;;;22.04;100.00
56944;BME280;42848;42.524;12.052;2023-09-18T06:07:24;96920.00;;;22.08;100.00
56944;BME280;42848;42.524;12.052;2023-09-18T06:09:50;96919.09;;;21.82;100.00
56944;BME280;42848;42.524;12.052;2023-09-18T06:12:15;96912.78;;;21.82;99.09
56944;BME280;42848;42.524;12.052;2023-09-18T06:14:41;96908.06;;;21.93;97.36
56944;BME280;42848;42.524;12.052;2023-09-18T06:17:08;96925.44;;;21.90;98.38
56944;BME280;42848;42.524;12.052;2023-09-18T06:19:35;96918.44;;;22.10;100.00
56944;BME280;42848;42.524;12.052;2023-09-18T06:22:01;96921.63;;;22.20;98.57
56944;BME280;42848;42.524;12.052;2023-09-18T06:24:27;96925.19;;;22.31;99.59
56944;BME280;42848;42.524;12.052;2023-09-18T06:26:53;96929.19;;;22.48;100.00
56944;BME280;42848;42.524;12.052;2023-09-18T06:29:19;96925.63;;;22.33;100.00
56944;BME280;42848;42.524;12.052;2023-09-18T06:31:45;96923.25;;;22.31;100.00
56944;BME280;42848;42.524;12.052;2023-09-18T06:34:11;96919.31;;;22.50;100.00
56944;BME280;42848;42.524;12.052;2023-09-18T06:36:37;96920.88;;;22.44;99.24
56944;BME280;42848;42.524;12.052;2023-09-18T06:39:03;96928.75;;;22.24;96.88
56944;BME280;42848;42.524;12.052;2023-09-18T06:41:29;96952.41;;;22.22;96.92
56944;BME280;42848;42.524;12.052;2023-09-18T06:43:54;96962.34;;;22.26;100.00
56944;BME280;42848;42.524;12.052;2023-09-18T06:46:20;96962.31;;;22.30;99.53
56944;BME280;42848;42.524;12.052;2023-09-18T06:48:46;96958.03;;;22.47;99.37
56944;BME280;42848;42.524;12.052;2023-09-18T06:51:15;96954.09;;;22.40;98.31
56944;BME280;42848;42.524;12.052;2023-09-18T06:53:41;96956.84;;;22.48;97.04
56944;BME280;42848;42.524;12.052;2023-09-18T06:56:06;96952.47;;;22.36;95.60
56944;BME280;42848;42.524;12.052;2023-09-18T06:58:34;96947.72;;;22.36;95.35
56944;BME280;42848;42.524;12.052;2023-09-18T07:01:00;96943.84;;;22.62;98.96
56944;BME280;42848;42.524;12.052;2023-09-18T07:03:26;96954.91;;;22.73;95.32
56944;BME280;42848;42.524;12.052;2023-09-18T07:05:52;96951.34;;;22.55;94.70
56944;BME280;42848;42.524;12.052;2023-09-18T07:08:17;96952.16;;;22.59;92.62
56944;BME280;42848;42.524;12.052;2023-09-18T07:10:50;96957.28;;;22.75;93.47
56944;BME280;42848;42.524;12.052;2023-09-18T07:13:18;96974.34;;;22.94;92.98
56944;BME280;42848;42.524;12.052;2023-09-18T07:15:44;96965.59;;;22.78;93.31
56944;BME280;42848;42.524;12.052;2023-09-18T07:18:10;96968.44;;;22.96;95.59
56944;BME280;42848;42.524;12.052;2023-09-18T07:20:45;96956.91;;;22.83;90.57
56944;BME280;42848;42.524;12.052;2023-09-18T07:23:11;96967.59;;;22.78;88.87
56944;BME280;42848;42.524;12.052;2023-09-18T07:25:36;96969.94;;;22.72;89.03
56944;BME280;42848;42.524;12.052;2023-09-18T07:28:06;96975.13;;;22.84;89.60
56944;BME280;42848;42.524;12.052;2023-09-18T07:30:32;96967.59;;;23.03;89.44
56944;BME280;42848;42.524;12.052;2023-09-18T07:32:58;96970.78;;;22.90;87.92
56944;BME280;42848;42.524;12.052;2023-09-18T07:35:26;96978.31;;;22.86;86.82
56944;BME280;42848;42.524;12.052;2023-09-18T07:37:52;96967.63;;;23.17;87.88
56944;BME280;42848;42.524;12.052;2023-09-18T07:40:18;96975.53;;;23.29;90.98
56944;BME280;42848;42.524;12.052;2023-09-18T07:42:44;96973.53;;;23.22;87.94
56944;BME280;42848;42.524;12.052;2023-09-18T07:45:10;96974.75;;;23.32;91.61
56944;BME280;42848;42.524;12.052;2023-09-18T07:47:36;96975.50;;;23.43;90.45
56944;BME280;42848;42.524;12.052;2023-09-18T07:50:02;96977.91;;;23.34;88.44
56944;BME280;42848;42.524;12.052;2023-09-18T07:52:29;96984.63;;;23.44;90.67
56944;BME280;42848;42.524;12.052;2023-09-18T07:54:55;96982.63;;;23.30;85.32
56944;BME280;42848;42.524;12.052;2023-09-18T07:57:21;96980.28;;;23.43;88.23
56944;BME280;42848;42.524;12.052;2023-09-18T07:59:48;96975.09;;;23.48;87.90
56944;BME280;42848;42.524;12.052;2023-09-18T08:02:14;96977.91;;;23.41;89.36
56944;BME280;42848;42.524;12.052;2023-09-18T08:04:41;96989.78;;;23.42;85.38
56944;BME280;42848;42.524;12.052;2023-09-18T08:07:07;96992.91;;;23.47;85.91
56944;BME280;42848;42.524;12.052;2023-09-18T08:09:33;96988.97;;;23.52;84.63
56944;BME280;42848;42.524;12.052;2023-09-18T08:12:06;96991.34;;;23.71;85.92
56944;BME280;42848;42.524;12.052;2023-09-18T08:14:32;96986.94;;;23.88;86.50
56944;BME280;42848;42.524;12.052;2023-09-18T08:17:01;96990.13;;;23.76;85.82
56944;BME280;42848;42.524;12.052;2023-09-18T08:19:28;96990.53;;;23.78;86.25
56944;BME280;42848;42.524;12.052;2023-09-18T08:21:54;96986.56;;;23.72;84.11
56944;BME280;42848;42.524;12.052;2023-09-18T08:24:24;96984.94;;;23.89;85.44
56944;BME280;42848;42.524;12.052;2023-09-18T08:26:49;96981.75;;;23.97;84.74
56944;BME280;42848;42.524;12.052;2023-09-18T08:29:15;96976.56;;;24.06;81.76
56944;BME280;42848;42.524;12.052;2023-09-18T08:31:42;96982.53;;;24.01;79.46
56944;BME280;42848;42.524;12.052;2023-09-18T08:34:07;96986.50;;;23.93;78.76
56944;BME280;42848;42.524;12.052;2023-09-18T08:36:33;97004.25;;;24.21;75.23
56944;BME280;42848;42.524;12.052;2023-09-18T08:38:59;97002.22;;;24.35;73.65
56944;BME280;42848;42.524;12.052;2023-09-18T08:41:27;96995.00;;;24.52;71.54
56944;BME280;42848;42.524;12.052;2023-09-18T08:43:59;97000.94;;;24.54;70.52
56944;BME280;42848;42.524;12.052;2023-09-18T08:46:25;97008.53;;;24.43;70.05
56944;BME280;42848;42.524;12.052;2023-09-18T08:48:51;97011.34;;;24.29;70.97
56944;BME280;42848;42.524;12.052;2023-09-18T08:51:18;97019.66;;;24.36;72.96
56944;BME280;42848;42.524;12.052;2023-09-18T08:53:46;97020.34;;;24.61;70.42
56944;BME280;42848;42.524;12.052;2023-09-18T08:56:12;97025.09;;;24.57;66.25
56944;BME280;42848;42.524;12.052;2023-09-18T08:58:40;97028.81;;;24.33;60.68
56944;BME280;42848;42.524;12.052;2023-09-18T09:01:11;97022.84;;;24.42;60.85
56944;BME280;42848;42.524;12.052;2023-09-18T09:03:41;97025.81;;;24.76;61.65
56944;BME280;42848;42.524;12.052;2023-09-18T09:06:13;97014.63;;;24.90;56.51
56944;BME280;42848;42.524;12.052;2023-09-18T09:08:39;97019.56;;;24.57;55.20
56944;BME280;42848;42.524;12.052;2023-09-18T09:11:05;97015.44;;;24.83;57.01
56944;BME280;42848;42.524;12.052;2023-09-18T09:13:31;97010.19;;;25.03;58.05
56944;BME280;42848;42.524;12.052;2023-09-18T09:15:58;96992.34;;;24.97;62.21
56944;BME280;42848;42.524;12.052;2023-09-18T09:18:26;96992.22;;;25.18;59.98
56944;BME280;42848;42.524;12.052;2023-09-18T09:23:19;96997.13;;;24.93;59.07
56944;BME280;42848;42.524;12.052;2023-09-18T09:25:45;96991.38;;;25.21;60.44
56944;BME280;42848;42.524;12.052;2023-09-18T09:28:10;96983.72;;;25.36;57.66
56944;BME280;42848;42.524;12.052;2023-09-18T09:30:37;96987.41;;;25.22;60.79
56944;BME280;42848;42.524;12.052;2023-09-18T09:33:04;96988.88;;;25.38;56.33
56944;BME280;42848;42.524;12.052;2023-09-18T09:35:32;96987.16;;;25.51;57.66
56944;BME280;42848;42.524;12.052;2023-09-18T09:38:10;96992.19;;;25.22;58.86
56944;BME280;42848;42.524;12.052;2023-09-18T09:40:40;96991.06;;;25.57;62.38
56944;BME280;42848;42.524;12.052;2023-09-18T09:43:08;96985.50;;;25.57;63.67
56944;BME280;42848;42.524;12.052;2023-09-18T09:45:34;96989.69;;;25.35;52.45
56944;BME280;42848;42.524;12.052;2023-09-18T09:48:03;96982.88;;;25.43;51.80
56944;BME280;42848;42.524;12.052;2023-09-18T09:50:33;96988.97;;;25.72;57.12
56944;BME280;42848;42.524;12.052;2023-09-18T09:52:59;96990.09;;;25.78;55.79
56944;BME280;42848;42.524;12.052;2023-09-18T09:55:32;96987.72;;;25.76;57.44
56944;BME280;42848;42.524;12.052;2023-09-18T09:58:01;96993.44;;;26.00;57.02
56944;BME280;42848;42.524;12.052;2023-09-18T10:00:43;96987.59;;;25.91;60.48
56944;BME280;42848;42.524;12.052;2023-09-18T10:03:11;96980.47;;;25.86;59.42
56944;BME280;42848;42.524;12.052;2023-09-18T10:05:39;96971.56;;;26.02;59.10
56944;BME280;42848;42.524;12.052;2023-09-18T10:08:22;96974.69;;;26.04;59.15
56944;BME280;42848;42.524;12.052;2023-09-18T10:10:48;96976.66;;;26.07;60.21
56944;BME280;42848;42.524;12.052;2023-09-18T10:15:48;96967.19;;;26.01;60.94
56944;BME280;42848;42.524;12.052;2023-09-18T10:21:27;96965.03;;;26.16;59.88
56944;BME280;42848;42.524;12.052;2023-09-18T10:24:12;96958.00;;;26.04;60.54
56944;BME280;42848;42.524;12.052;2023-09-18T10:29:15;96964.13;;;26.22;62.39
56944;BME280;42848;42.524;12.052;2023-09-18T10:31:44;96965.56;;;26.38;63.82
56944;BME280;42848;42.524;12.052;2023-09-18T10:34:12;96962.41;;;26.35;64.21
56944;BME280;42848;42.524;12.052;2023-09-18T10:36:41;96958.50;;;26.29;62.54
56944;BME280;42848;42.524;12.052;2023-09-18T10:39:09;96958.38;;;26.67;64.34
56944;BME280;42848;42.524;12.052;2023-09-18T10:41:38;96958.34;;;26.71;61.15
56944;BME280;42848;42.524;12.052;2023-09-18T10:44:04;96953.03;;;26.80;58.52
56944;BME280;42848;42.524;12.052;2023-09-18T10:46:31;96958.03;;;26.65;54.92
56944;BME280;42848;42.524;12.052;2023-09-18T10:48:59;96953.75;;;26.84;54.93
56944;BME280;42848;42.524;12.052;2023-09-18T10:51:26;96955.31;;;26.88;55.08
56944;BME280;42848;42.524;12.052;2023-09-18T10:53:53;96955.03;;;26.79;56.26
56944;BME280;42848;42.524;12.052;2023-09-18T10:56:22;96964.06;;;26.87;52.82
56944;BME280;42848;42.524;12.052;2023-09-18T10:58:57;96949.94;;;26.74;51.56
56944;BME280;42848;42.524;12.052;2023-09-18T11:01:23;96956.50;;;26.87;53.27
56944;BME280;42848;42.524;12.052;2023-09-18T11:03:53;96950.91;;;26.87;53.21
56944;BME280;42848;42.524;12.052;2023-09-18T11:06:24;96950.56;;;26.85;50.70
56944;BME280;42848;42.524;12.052;2023-09-18T11:08:59;96951.16;;;26.97;53.52
56944;BME280;42848;42.524;12.052;2023-09-18T11:11:27;96944.44;;;26.94;54.59
56944;BME280;42848;42.524;12.052;2023-09-18T11:13:59;96942.34;;;27.02;58.53
56944;BME280;42848;42.524;12.052;2023-09-18T11:19:08;96930.84;;;27.00;57.78
56944;BME280;42848;42.524;12.052;2023-09-18T11:21:34;96933.84;;;26.85;59.04
56944;BME280;42848;42.524;12.052;2023-09-18T11:26:34;96934.13;;;26.68;60.74
56944;BME280;42848;42.524;12.052;2023-09-18T11:31:53;96931.94;;;26.79;60.77
56944;BME280;42848;42.524;12.052;2023-09-18T11:36:49;96938.06;;;26.70;59.50
56944;BME280;42848;42.524;12.052;2023-09-18T11:39:36;96949.09;;;26.77;61.78
56944;BME280;42848;42.524;12.052;2023-09-18T11:42:07;96939.66;;;26.71;62.76
56944;BME280;42848;42.524;12.052;2023-09-18T11:44:34;96942.00;;;26.73;64.84
56944;BME280;42848;42.524;12.052;2023-09-18T11:47:02;96932.06;;;26.72;60.34
56944;BME280;42848;42.524;12.052;2023-09-18T11:49:29;96936.44;;;26.73;60.10
56944;BME280;42848;42.524;12.052;2023-09-18T11:52:00;96937.91;;;26.81;63.53
56944;BME280;42848;42.524;12.052;2023-09-18T11:54:29;96933.53;;;26.80;62.24
56944;BME280;42848;42.524;12.052;2023-09-18T11:56:57;96935.06;;;26.84;61.60
56944;BME280;42848;42.524;12.052;2023-09-18T11:59:41;96945.72;;;26.89;61.84
56944;BME280;42848;42.524;12.052;2023-09-18T12:02:09;96940.25;;;26.82;60.62
56944;BME280;42848;42.524;12.052;2023-09-18T12:04:35;96929.00;;;26.89;60.37
56944;BME280;42848;42.524;12.052;2023-09-18T12:07:03;96929.13;;;26.82;60.12
56944;BME280;42848;42.524;12.052;2023-09-18T12:09:33;96929.97;;;26.79;61.00
56944;BME280;42848;42.524;12.052;2023-09-18T12:12:00;96931.53;;;26.80;62.37
56944;BME280;42848;42.524;12.052;2023-09-18T12:14:34;96925.97;;;26.80;60.44
56944;BME280;42848;42.524;12.052;2023-09-18T12:17:00;96926.59;;;26.91;62.43
56944;BME280;42848;42.524;12.052;2023-09-18T12:19:28;96908.16;;;26.74;58.88
56944;BME280;42848;42.524;12.052;2023-09-18T12:21:54;96912.63;;;26.68;61.17
56944;BME280;42848;42.524;12.052;2023-09-18T12:24:23;96907.78;;;26.72;61.23
56944;BME280;42848;42.524;12.052;2023-09-18T12:26:50;96905.25;;;26.81;64.48
56944;BME280;42848;42.524;12.052;2023-09-18T12:29:17;96915.56;;;26.84;63.92
56944;BME280;42848;42.524;12.052;2023-09-18T12:31:42;96905.63;;;26.83;63.97
56944;BME280;42848;42.524;12.052;2023-09-18T12:34:21;96899.34;;;26.79;64.93
56944;BME280;42848;42.524;12.052;2023-09-18T12:36:48;96905.25;;;26.81;62.71
56944;BME280;42848;42.524;12.052;2023-09-18T12:39:18;96910.72;;;26.88;62.50
56944;BME280;42848;42.524;12.052;2023-09-18T12:41:47;96906.59;;;26.73;62.86
56944;BME280;42848;42.524;12.052;2023-09-18T12:44:13;96895.25;;;26.84;62.80
56944;BME280;42848;42.524;12.052;2023-09-18T12:46:42;96889.38;;;26.78;63.23
56944;BME280;42848;42.524;12.052;2023-09-18T12:49:21;96898.13;;;26.80;64.84
56944;BME280;42848;42.524;12.052;2023-09-18T12:52:00;96890.97;;;26.79;63.87
56944;BME280;42848;42.524;12.052;2023-09-18T12:54:43;96897.34;;;26.80;62.55
56944;BME280;42848;42.524;12.052;2023-09-18T12:57:19;96885.53;;;26.72;63.02
56944;BME280;42848;42.524;12.052;2023-09-18T12:59:46;96880.78;;;26.69;62.70
56944;BME280;42848;42.524;12.052;2023-09-18T13:02:17;96876.81;;;26.70;64.89
56944;BME280;42848;42.524;12.052;2023-09-18T13:04:51;96879.09;;;26.75;63.97
56944;BME280;42848;42.524;12.052;2023-09-18T13:07:17;96865.66;;;26.70;60.75
56944;BME280;42848;42.524;12.052;2023-09-18T13:09:58;96868.81;;;26.72;61.51
56944;BME280;42848;42.524;12.052;2023-09-18T13:12:25;96851.31;;;26.72;62.66